createdAt,value
2019-04-01T00:01:41.223Z,5.13
2019-04-01T00:04:48.910Z,5.50
2019-04-01T00:07:56.529Z,4.73
2019-04-01T00:11:04.432Z,4.87
2019-04-01T00:14:11.812Z,5.13
2019-04-01T00:17:19.504Z,4.27
2019-04-01T00:20:27.178Z,3.97
2019-04-01T00:23:34.656Z,4.60
2019-04-01T00:26:42.050Z,4.10
2019-04-01T00:29:49.682Z,4.23
2019-04-01T00:32:57.412Z,4.77
2019-04-01T00:36:05.498Z,4.50
2019-04-01T00:39:12.816Z,5.00
2019-04-01T00:42:28.714Z,4.30
2019-04-01T00:45:37.872Z,4.67
2019-04-01T00:48:45.237Z,4.40
2019-04-01T00:51:53.056Z,5.37
2019-04-01T00:55:00.451Z,6.07
2019-04-01T00:58:08.075Z,5.33
2019-04-01T01:01:15.618Z,4.90
2019-04-01T01:04:23.422Z,5.30
2019-04-01T01:07:31.115Z,4.53
2019-04-01T01:10:38.532Z,4.20
2019-04-01T01:13:46.233Z,4.57
2019-04-01T01:16:53.788Z,5.13
2019-04-01T01:20:01.615Z,5.37
2019-04-01T01:23:09.375Z,5.07
2019-04-01T01:26:16.820Z,5.83
2019-04-01T01:29:24.742Z,5.17
2019-04-01T01:32:32.298Z,4.90
2019-04-01T01:35:39.720Z,5.63
2019-04-01T01:38:47.174Z,4.90
2019-04-01T01:41:54.796Z,4.97
2019-04-01T01:45:02.835Z,5.27
2019-04-01T01:48:10.512Z,5.10
2019-04-01T01:51:18.204Z,4.87
2019-04-01T01:54:25.811Z,4.23
2019-04-01T01:57:33.434Z,4.30
2019-04-01T02:00:41.111Z,5.17
2019-04-01T02:03:48.473Z,5.10
2019-04-01T02:06:56.095Z,5.13
2019-04-01T02:10:03.930Z,5.30
2019-04-01T02:13:11.388Z,5.23
2019-04-01T02:16:18.817Z,5.40
2019-04-01T02:19:26.097Z,4.83
2019-04-01T02:22:33.500Z,4.17
2019-04-01T02:25:40.881Z,4.87
2019-04-01T02:28:48.256Z,5.33
2019-04-01T02:31:56.038Z,5.07
2019-04-01T02:35:03.640Z,4.80
2019-04-01T02:38:11.822Z,6.17
2019-04-01T02:41:19.588Z,5.73
2019-04-01T02:44:27.280Z,5.63
2019-04-01T02:47:35.086Z,5.33
2019-04-01T02:53:57.738Z,5.73
2019-04-01T02:57:04.915Z,5.10
2019-04-01T03:00:12.796Z,5.40
2019-04-01T03:03:20.192Z,5.03
2019-04-01T03:06:27.489Z,5.03
2019-04-01T03:09:34.794Z,6.03
2019-04-01T03:12:42.081Z,4.93
2019-04-01T03:15:49.256Z,5.50
2019-04-01T03:18:56.827Z,5.17
2019-04-01T03:22:04.150Z,5.50
2019-04-01T03:25:11.859Z,5.33
2019-04-01T03:28:19.028Z,5.27
2019-04-01T03:31:26.475Z,7.03
2019-04-01T03:34:34.230Z,6.93
2019-04-01T03:37:41.533Z,5.87
2019-04-01T03:40:48.814Z,6.57
2019-04-01T03:43:56.306Z,6.70
2019-04-01T03:47:03.813Z,5.77
2019-04-01T03:50:11.490Z,5.67
2019-04-01T03:53:19.039Z,6.10
2019-04-01T03:56:26.301Z,5.53
2019-04-01T03:59:34.591Z,5.47
2019-04-01T04:02:42.299Z,6.27
2019-04-01T04:05:50.078Z,5.13
2019-04-01T04:09:01.633Z,6.40
2019-04-01T04:12:07.386Z,5.40
2019-04-01T04:15:14.874Z,6.30
2019-04-01T04:18:22.615Z,7.20
2019-04-01T04:21:30.607Z,7.80
2019-04-01T04:24:38.085Z,7.83
2019-04-01T04:27:45.737Z,6.83
2019-04-01T04:30:53.271Z,6.60
2019-04-01T04:34:04.695Z,8.00
2019-04-01T04:37:12.162Z,8.30
2019-04-01T04:40:19.752Z,8.73
2019-04-01T04:43:26.960Z,7.77
2019-04-01T04:46:34.582Z,8.47
2019-04-01T04:49:42.052Z,8.30
2019-04-01T04:52:49.345Z,8.67
2019-04-01T04:55:56.706Z,8.30
2019-04-01T04:59:04.379Z,9.60
2019-04-01T05:02:11.866Z,9.00
2019-04-01T05:05:19.735Z,10.30
2019-04-01T05:08:27.411Z,9.37
2019-04-01T05:11:34.863Z,10.57
2019-04-01T05:14:42.268Z,10.93
2019-04-01T05:17:49.736Z,11.93
2019-04-01T05:20:59.066Z,10.73
2019-04-01T05:24:07.582Z,11.67
2019-04-01T05:27:20.797Z,11.30
2019-04-01T05:30:32.596Z,11.50
2019-04-01T05:33:54.867Z,9.90
2019-04-01T05:36:55.578Z,9.13
2019-04-01T05:40:04.739Z,8.27
2019-04-01T05:43:12.230Z,8.13
2019-04-01T05:46:19.994Z,8.77
2019-04-01T05:49:27.721Z,9.33
2019-04-01T05:52:35.427Z,10.27
2019-04-01T05:55:43.281Z,11.43
2019-04-01T05:58:50.817Z,12.10
2019-04-01T06:01:58.211Z,13.37
2019-04-01T06:05:06.442Z,12.00
2019-04-01T06:08:13.930Z,11.67
2019-04-01T06:11:21.378Z,16.80
2019-04-01T06:14:29.310Z,21.73
2019-04-01T06:17:37.117Z,21.80
2019-04-01T06:20:45.535Z,22.33
2019-04-01T06:23:53.123Z,20.63
2019-04-01T06:27:00.612Z,21.80
2019-04-01T06:30:08.546Z,22.47
2019-04-01T06:33:16.007Z,21.93
2019-04-01T06:36:23.421Z,22.23
2019-04-01T06:39:30.806Z,22.80
2019-04-01T06:42:38.628Z,20.80
2019-04-01T06:45:46.175Z,22.10
2019-04-01T06:48:53.714Z,21.03
2019-04-01T06:52:01.502Z,21.80
2019-04-01T06:55:08.996Z,21.43
2019-04-01T06:58:17.323Z,19.53
2019-04-01T07:01:27.284Z,20.17
2019-04-01T07:04:36.344Z,22.00
2019-04-01T07:07:45.148Z,20.50
2019-04-01T07:10:55.358Z,19.73
2019-04-01T07:14:04.208Z,19.03
2019-04-01T07:17:15.071Z,21.30
2019-04-01T07:20:24.916Z,20.50
2019-04-01T07:23:32.620Z,19.93
2019-04-01T07:26:40.145Z,20.20
2019-04-01T07:29:47.737Z,21.20
2019-04-01T07:32:55.763Z,20.07
2019-04-01T07:36:03.143Z,20.37
2019-04-01T07:39:10.563Z,20.60
2019-04-01T07:42:18.661Z,20.63
2019-04-01T07:45:26.606Z,19.17
2019-04-01T07:48:34.498Z,18.77
2019-04-01T07:51:42.531Z,20.03
2019-04-01T07:54:50.099Z,19.43
2019-04-01T07:57:59.872Z,18.10
2019-04-01T08:01:07.811Z,19.57
2019-04-01T08:04:30.484Z,19.50
2019-04-01T08:07:39.782Z,18.73
2019-04-01T08:10:47.388Z,20.57
2019-04-01T08:13:55.435Z,18.03
2019-04-01T08:17:02.945Z,20.53
2019-04-01T08:20:10.799Z,20.50
2019-04-01T08:23:18.541Z,19.80
2019-04-01T08:26:26.498Z,21.07
2019-04-01T08:29:34.028Z,21.03
2019-04-01T08:32:41.590Z,21.10
2019-04-01T08:35:49.255Z,20.23
2019-04-01T08:38:56.818Z,19.07
2019-04-01T08:42:04.330Z,19.10
2019-04-01T08:45:11.821Z,21.33
2019-04-01T08:48:19.585Z,20.00
2019-04-01T08:51:27.023Z,19.23
2019-04-01T08:54:34.603Z,19.07
2019-04-01T08:57:42.075Z,18.93
2019-04-01T09:00:49.918Z,19.20
2019-04-01T09:03:58.063Z,20.20
2019-04-01T09:07:05.490Z,19.73
2019-04-01T09:10:13.932Z,18.90
2019-04-01T09:13:22.448Z,19.57
2019-04-01T09:16:31.257Z,19.47
2019-04-01T09:19:38.800Z,19.53
2019-04-01T09:22:46.714Z,19.57
2019-04-01T09:25:54.193Z,18.60
2019-04-01T09:29:01.720Z,19.33
2019-04-01T09:32:09.511Z,17.70
2019-04-01T09:35:17.114Z,18.67
2019-04-01T09:38:25.936Z,18.57
2019-04-01T09:41:33.660Z,19.67
2019-04-01T09:44:41.636Z,18.17
2019-04-01T09:47:49.128Z,19.07
2019-04-01T09:50:56.544Z,18.30
2019-04-01T09:54:04.299Z,19.03
2019-04-01T09:57:17.920Z,18.33
2019-04-01T10:00:22.033Z,18.30
2019-04-01T10:03:29.497Z,18.97
2019-04-01T10:06:37.020Z,18.20
2019-04-01T10:09:44.379Z,18.17
2019-04-01T10:12:52.134Z,18.27
2019-04-01T10:15:59.690Z,17.50
2019-04-01T10:19:07.532Z,17.77
2019-04-01T10:22:15.125Z,18.80
2019-04-01T10:25:22.814Z,18.53
2019-04-01T10:28:32.130Z,18.70
2019-04-01T10:31:39.607Z,17.13
2019-04-01T10:34:47.203Z,16.83
2019-04-01T10:37:54.688Z,18.33
2019-04-01T10:41:02.181Z,18.50
2019-04-01T10:44:09.995Z,17.17
2019-04-01T10:47:17.650Z,18.80
2019-04-01T10:50:25.469Z,17.90
2019-04-01T10:53:32.821Z,17.23
2019-04-01T10:56:40.109Z,16.90
2019-04-01T10:59:47.522Z,17.97
2019-04-01T11:02:54.833Z,17.17
2019-04-01T11:06:02.729Z,17.00
2019-04-01T11:09:10.954Z,17.53
2019-04-01T11:12:18.699Z,17.83
2019-04-01T11:15:26.322Z,19.40
2019-04-01T11:18:34.103Z,18.50
2019-04-01T11:21:41.894Z,17.70
2019-04-01T11:24:49.667Z,18.70
2019-04-01T11:27:56.989Z,19.80
2019-04-01T11:31:04.386Z,18.53
2019-04-01T11:34:12.855Z,17.73
2019-04-01T11:37:20.097Z,19.47
2019-04-01T11:40:27.684Z,17.73
2019-04-01T11:43:35.742Z,17.50
2019-04-01T11:46:43.642Z,17.67
2019-04-01T11:49:51.256Z,17.83
2019-04-01T11:52:58.972Z,16.97
2019-04-01T11:56:06.373Z,17.17
2019-04-01T11:59:13.722Z,16.97
2019-04-01T12:02:21.597Z,16.50
2019-04-01T12:05:29.916Z,16.87
2019-04-01T12:08:37.195Z,15.60
2019-04-01T12:11:44.553Z,16.47
2019-04-01T12:14:52.046Z,15.60
2019-04-01T12:17:59.468Z,15.37
2019-04-01T12:21:08.263Z,15.17
2019-04-01T12:24:16.017Z,15.90
2019-04-01T12:27:23.822Z,14.60
2019-04-01T12:30:31.330Z,14.53
2019-04-01T12:33:38.878Z,14.23
2019-04-01T12:36:46.102Z,14.97
2019-04-01T12:39:53.819Z,16.77
2019-04-01T12:43:01.811Z,14.83
2019-04-01T12:46:09.590Z,13.77
2019-04-01T12:49:17.309Z,14.63
2019-04-01T12:52:24.589Z,13.30
2019-04-01T12:55:31.854Z,14.63
2019-04-01T12:58:39.395Z,15.37
2019-04-01T13:01:47.001Z,14.83
2019-04-01T13:04:54.698Z,14.60
2019-04-01T13:08:02.071Z,13.83
2019-04-01T13:11:10.147Z,13.87
2019-04-01T13:14:17.752Z,15.47
2019-04-01T13:17:25.013Z,14.00
2019-04-01T13:20:38.152Z,13.90
2019-04-01T13:23:41.709Z,13.17
2019-04-01T13:26:50.893Z,14.03
2019-04-01T13:29:58.659Z,12.70
2019-04-01T13:33:06.275Z,14.27
2019-04-01T13:36:13.877Z,15.80
2019-04-01T13:39:21.771Z,13.53
2019-04-01T13:42:29.666Z,13.10
2019-04-01T13:45:37.164Z,14.90
2019-04-01T13:48:56.973Z,12.80
2019-04-01T13:51:53.991Z,13.03
2019-04-01T13:55:02.039Z,13.17
2019-04-01T13:58:10.503Z,13.13
2019-04-01T14:01:18.236Z,13.63
2019-04-01T14:04:27.335Z,13.13
2019-04-01T14:07:35.107Z,14.03
2019-04-01T14:10:42.608Z,12.83
2019-04-01T14:13:50.610Z,12.40
2019-04-01T14:16:58.175Z,12.77
2019-04-01T14:20:06.687Z,16.37
2019-04-01T14:23:14.699Z,14.33
2019-04-01T14:26:22.206Z,12.53
2019-04-01T14:29:29.623Z,12.00
2019-04-01T14:32:37.406Z,12.13
2019-04-01T14:35:45.300Z,12.03
2019-04-01T14:38:52.675Z,11.70
2019-04-01T14:41:59.934Z,12.27
2019-04-01T14:45:10.380Z,10.97
2019-04-01T14:48:18.013Z,11.67
2019-04-01T14:54:41.219Z,12.10
2019-04-01T14:57:48.661Z,12.60
2019-04-01T15:00:56.159Z,11.37
2019-04-01T15:04:05.289Z,12.40
2019-04-01T15:07:14.054Z,11.77
2019-04-01T15:10:23.028Z,12.50
2019-04-01T15:13:30.230Z,10.97
2019-04-01T15:16:37.899Z,15.00
2019-04-01T15:19:48.524Z,13.87
2019-04-01T15:22:56.024Z,12.20
2019-04-01T15:26:04.065Z,12.17
2019-04-01T15:29:11.580Z,11.60
2019-04-01T15:32:19.453Z,11.93
2019-04-01T15:35:27.146Z,12.07
2019-04-01T15:38:34.995Z,11.17
2019-04-01T15:41:43.241Z,12.87
2019-04-01T15:44:51.055Z,12.07
2019-04-01T15:47:59.601Z,11.73
2019-04-01T15:51:07.937Z,10.87
2019-04-01T15:54:16.210Z,12.70
2019-04-01T15:57:24.714Z,11.60
2019-04-01T16:00:32.793Z,11.57
2019-04-01T16:03:41.315Z,12.93
2019-04-01T16:06:48.940Z,11.97
2019-04-01T16:09:56.525Z,11.70
2019-04-01T16:13:04.202Z,11.57
2019-04-01T16:16:14.275Z,11.67
2019-04-01T16:19:20.681Z,11.87
2019-04-01T16:22:28.021Z,11.37
2019-04-01T16:25:37.599Z,11.87
2019-04-01T16:28:45.379Z,12.30
2019-04-01T16:31:55.425Z,12.33
2019-04-01T16:35:03.952Z,11.80
2019-04-01T16:38:11.784Z,11.33
2019-04-01T16:41:19.781Z,11.97
2019-04-01T16:44:27.379Z,11.00
2019-04-01T16:47:34.877Z,10.97
2019-04-01T16:50:42.401Z,12.00
2019-04-01T16:53:49.911Z,10.83
2019-04-01T16:56:57.367Z,11.70
2019-04-01T17:00:08.378Z,12.17
2019-04-01T17:03:16.447Z,12.40
2019-04-01T17:06:23.962Z,12.10
2019-04-01T17:09:31.754Z,11.80
2019-04-01T17:12:39.744Z,11.03
2019-04-01T17:15:48.898Z,10.97
2019-04-01T17:18:57.808Z,11.57
2019-04-01T17:22:05.907Z,11.77
2019-04-01T17:25:14.446Z,10.50
2019-04-01T17:28:22.012Z,12.83
2019-04-01T17:31:29.885Z,18.27
2019-04-01T17:34:37.687Z,14.67
2019-04-01T17:37:46.001Z,14.20
2019-04-01T17:40:53.759Z,12.83
2019-04-01T17:44:01.712Z,12.83
2019-04-01T17:47:09.414Z,12.27
2019-04-01T17:50:17.012Z,10.97
2019-04-01T17:53:25.008Z,12.53
2019-04-01T17:56:33.074Z,11.60
2019-04-01T17:59:41.593Z,13.27
2019-04-01T18:02:50.245Z,13.07
2019-04-01T18:05:58.223Z,11.67
2019-04-01T18:09:07.009Z,13.20
2019-04-01T18:12:15.980Z,13.83
2019-04-01T18:15:26.263Z,14.90
2019-04-01T18:18:36.096Z,13.87
2019-04-01T18:21:47.111Z,12.90
2019-04-01T18:24:55.700Z,13.57
2019-04-01T18:28:05.415Z,12.90
2019-04-01T18:31:13.731Z,12.57
2019-04-01T18:34:23.218Z,11.47
2019-04-01T18:37:31.732Z,12.80
2019-04-01T18:40:39.662Z,13.23
2019-04-01T18:43:48.690Z,12.43
2019-04-01T18:46:57.957Z,13.37
2019-04-01T18:50:08.082Z,12.70
2019-04-01T18:53:15.513Z,12.40
2019-04-01T18:56:23.511Z,12.57
2019-04-01T18:59:34.577Z,11.03
2019-04-01T19:02:42.574Z,11.90
2019-04-01T19:05:50.570Z,11.43
2019-04-01T19:09:08.745Z,12.30
2019-04-01T19:12:10.925Z,11.17
2019-04-01T19:15:19.219Z,11.17
2019-04-01T19:18:27.446Z,12.83
2019-04-01T19:21:36.984Z,12.63
2019-04-01T19:25:23.226Z,12.63
2019-04-01T19:28:35.947Z,12.77
2019-04-01T19:32:14.581Z,13.07
2019-04-01T19:35:27.272Z,10.60
2019-04-01T19:38:43.758Z,11.27
2019-04-01T19:41:51.954Z,11.50
2019-04-01T19:45:04.616Z,12.10
2019-04-01T19:48:15.963Z,11.80
2019-04-01T19:51:24.180Z,10.87
2019-04-01T19:54:43.282Z,11.67
2019-04-01T19:57:53.122Z,11.37
2019-04-01T20:01:05.718Z,12.23
2019-04-01T20:04:14.823Z,11.30
2019-04-01T20:07:26.481Z,11.90
2019-04-01T20:10:37.806Z,11.73
2019-04-01T20:13:46.390Z,11.03
2019-04-01T20:17:09.991Z,11.73
2019-04-01T20:20:14.721Z,13.77
2019-04-01T20:23:23.434Z,16.37
2019-04-01T20:26:34.559Z,22.03
2019-04-01T20:29:48.279Z,26.70
2019-04-01T20:32:59.156Z,26.77
2019-04-01T20:36:09.389Z,20.87
2019-04-01T20:39:19.786Z,17.07
2019-04-01T20:42:34.247Z,14.27
2019-04-01T20:45:42.860Z,13.23
2019-04-01T20:48:50.894Z,12.63
2019-04-01T20:51:58.522Z,12.60
2019-04-01T20:55:06.909Z,11.27
2019-04-01T20:58:14.685Z,11.80
2019-04-01T21:01:22.850Z,11.00
2019-04-01T21:04:30.715Z,11.23
2019-04-01T21:07:38.143Z,11.37
2019-04-01T21:10:45.615Z,12.00
2019-04-01T21:13:53.451Z,12.37
2019-04-01T21:17:06.203Z,13.47
2019-04-01T21:20:14.889Z,13.43
2019-04-01T21:23:22.212Z,12.60
2019-04-01T21:26:29.677Z,13.63
2019-04-01T21:29:37.324Z,13.53
2019-04-01T21:32:45.323Z,13.07
2019-04-01T21:35:53.185Z,13.47
2019-04-01T21:39:01.289Z,13.40
2019-04-01T21:42:09.257Z,13.07
2019-04-01T21:45:16.906Z,12.73
2019-04-01T21:48:24.621Z,11.97
2019-04-01T21:51:33.166Z,11.93
2019-04-01T21:54:41.182Z,12.27
2019-04-01T21:57:48.737Z,11.63
2019-04-01T22:00:57.052Z,13.10
2019-04-01T22:04:04.622Z,13.40
2019-04-01T22:07:12.215Z,11.63
2019-04-01T22:10:19.824Z,12.13
2019-04-01T22:13:27.507Z,12.63
2019-04-01T22:16:35.559Z,11.97
2019-04-01T22:19:43.254Z,11.87
2019-04-01T22:22:50.656Z,12.27
2019-04-01T22:25:58.915Z,10.80
2019-04-01T22:29:07.087Z,11.57
2019-04-01T22:32:14.473Z,11.23
2019-04-01T22:35:22.182Z,11.13
2019-04-01T22:38:29.655Z,11.20
2019-04-01T22:41:37.051Z,10.93
2019-04-01T22:44:44.695Z,11.77
2019-04-01T22:47:52.788Z,11.20
2019-04-01T22:51:00.036Z,10.60
2019-04-01T22:54:07.589Z,11.40
2019-04-01T22:57:15.472Z,10.43
2019-04-01T23:00:23.050Z,11.53
2019-04-01T23:03:31.085Z,11.80
2019-04-01T23:06:38.934Z,11.07
2019-04-01T23:09:46.355Z,11.23
2019-04-01T23:12:54.386Z,10.27
2019-04-01T23:16:01.992Z,11.83
2019-04-01T23:19:09.375Z,11.90
2019-04-01T23:22:16.761Z,10.67
2019-04-01T23:25:25.244Z,9.67
2019-04-01T23:28:33.541Z,10.07
2019-04-01T23:31:40.998Z,9.40
2019-04-01T23:34:48.384Z,10.77
2019-04-01T23:37:56.499Z,11.30
2019-04-01T23:41:04.052Z,11.87
2019-04-01T23:44:11.699Z,11.67
2019-04-01T23:47:19.234Z,12.07
2019-04-01T23:50:26.421Z,12.10
2019-04-01T23:53:34.406Z,11.50
2019-04-01T23:56:42.093Z,11.87
2019-04-01T23:59:49.809Z,11.80
